Time;durP1;ratioP1;P1;durP2;ratioP2;P2;SDS_P1;SDS_P2;PMS_P1;PMS_P2;Temp;Humidity;BMP_temperature;BMP_pressure;BME280_temperature;BME280_humidity;BME280_pressure;Samples;Min_cycle;Max_cycle;Signal;HPM_P1;HPM_P2
2022/05/07 00:01:59;;;;;;;17.20;11.50;;;16.50;65.50;;;;;;5116826;27;20027;-67
2022/05/07 00:04:25;;;;;;;14.43;11.48;;;16.50;65.60;;;;;;5134519;27;20051;-67
2022/05/07 00:06:51;;;;;;;12.52;10.50;;;16.50;65.60;;;;;;5133480;27;20027;-67
2022/05/07 00:09:18;;;;;;;14.32;10.75;;;16.50;66.40;;;;;;5123998;27;20114;-66
2022/05/07 00:11:46;;;;;;;13.07;10.82;;;16.50;65.70;;;;;;5129178;27;20102;-67
2022/05/07 00:14:11;;;;;;;13.55;11.18;;;16.50;65.70;;;;;;5136162;27;20062;-67
2022/05/07 00:19:21;;;;;;;13.95;10.30;;;16.50;65.80;;;;;;5117943;27;20096;-67
2022/05/07 00:21:47;;;;;;;12.18;10.02;;;16.40;65.80;;;;;;5134057;27;20388;-67
2022/05/07 00:24:12;;;;;;;13.85;10.70;;;16.40;65.80;;;;;;5135143;27;20028;-67
2022/05/07 00:26:38;;;;;;;13.35;10.80;;;16.40;65.90;;;;;;5128503;27;20098;-67
2022/05/07 00:29:03;;;;;;;13.48;10.48;;;16.40;65.90;;;;;;5101877;28;20032;-67
2022/05/07 00:31:29;;;;;;;12.88;10.60;;;16.50;65.90;;;;;;5130111;27;20083;-67
2022/05/07 00:33:54;;;;;;;13.15;10.15;;;16.50;65.90;;;;;;5127054;27;20075;-67
2022/05/07 00:36:20;;;;;;;13.55;10.32;;;16.50;65.90;;;;;;5129128;27;20118;-67
2022/05/07 00:38:46;;;;;;;15.40;9.88;;;16.50;65.90;;;;;;5120786;27;20023;-67
2022/05/07 00:41:12;;;;;;;12.38;9.73;;;16.50;65.80;;;;;;5127803;27;20114;-67
2022/05/07 00:43:41;;;;;;;12.18;9.43;;;16.50;65.90;;;;;;5136509;27;20403;-67
2022/05/07 00:46:08;;;;;;;12.30;9.25;;;16.50;65.90;;;;;;5128193;27;20027;-67
2022/05/07 00:48:33;;;;;;;12.57;9.82;;;16.40;65.90;;;;;;5124327;27;20088;-67
2022/05/07 00:53:46;;;;;;;12.45;9.45;;;16.40;66.10;;;;;;5122900;27;20035;-67
2022/05/07 00:56:12;;;;;;;14.27;9.73;;;16.30;66.10;;;;;;5124184;27;20377;-67
2022/05/07 00:58:38;;;;;;;11.93;9.65;;;16.30;66.10;;;;;;5132732;27;20360;-67
2022/05/07 01:01:05;;;;;;;14.43;9.50;;;16.30;66.20;;;;;;5080594;27;20031;-67
2022/05/07 01:03:31;;;;;;;11.55;8.90;;;16.30;66.20;;;;;;5124929;27;20035;-67
2022/05/07 01:05:57;;;;;;;10.98;8.80;;;16.30;66.30;;;;;;5132991;27;20355;-67
2022/05/07 01:08:25;;;;;;;11.90;8.95;;;16.30;66.30;;;;;;5136266;27;20034;-66
2022/05/07 01:10:52;;;;;;;11.82;9.38;;;16.30;66.30;;;;;;5121254;27;20027;-66
2022/05/07 01:13:20;;;;;;;11.45;9.40;;;16.30;66.40;;;;;;5118397;27;20456;-66
2022/05/07 01:15:48;;;;;;;11.43;8.57;;;16.20;66.40;;;;;;5119056;27;20365;-66
2022/05/07 01:18:16;;;;;;;12.07;9.07;;;16.30;66.40;;;;;;5115271;27;20128;-67
2022/05/07 01:20:42;;;;;;;12.43;8.90;;;16.20;66.40;;;;;;5118340;27;20062;-66
2022/05/07 01:23:08;;;;;;;13.07;9.15;;;16.30;66.40;;;;;;5120038;27;20459;-66
2022/05/07 01:25:34;;;;;;;12.13;8.95;;;16.30;66.40;;;;;;5129082;27;20032;-67
2022/05/07 01:28:00;;;;;;;14.57;9.73;;;16.20;66.30;;;;;;5114473;27;20410;-67
2022/05/07 01:30:28;;;;;;;12.85;9.23;;;16.20;66.40;;;;;;5125044;27;20052;-67
2022/05/07 01:32:53;;;;;;;12.85;9.25;;;16.20;66.50;;;;;;5118516;27;20047;-66
2022/05/07 01:35:19;;;;;;;12.25;9.15;;;16.20;66.60;;;;;;5134864;27;20025;-66
2022/05/07 01:37:48;;;;;;;13.80;9.38;;;16.20;66.60;;;;;;5128946;27;20027;-67
2022/05/07 01:40:13;;;;;;;12.13;9.20;;;16.10;66.60;;;;;;5110710;28;20410;-67
2022/05/07 01:42:42;;;;;;;12.65;8.93;;;16.10;66.70;;;;;;5126158;27;20039;-66
2022/05/07 01:45:09;;;;;;;11.88;9.07;;;16.10;66.90;;;;;;5113713;28;20031;-67
2022/05/07 01:50:28;;;;;;;12.10;9.02;;;16.10;67.00;;;;;;5130690;27;20055;-67
2022/05/07 01:52:53;;;;;;;12.93;9.32;;;16.10;67.00;;;;;;5101946;28;20023;-67
2022/05/07 01:55:19;;;;;;;12.50;9.18;;;16.00;67.00;;;;;;5113715;28;20084;-67
2022/05/07 01:57:49;;;;;;;12.52;8.60;;;16.00;67.20;;;;;;5121649;28;20036;-67
2022/05/07 02:00:15;;;;;;;12.73;9.35;;;16.00;67.10;;;;;;5120591;28;20142;-67
2022/05/07 02:02:41;;;;;;;12.65;8.90;;;16.00;67.20;;;;;;5126405;28;20057;-67
2022/05/07 02:05:17;;;;;;;12.25;9.18;;;16.00;67.30;;;;;;5131868;28;20019;-67
2022/05/07 02:07:42;;;;;;;12.38;9.65;;;16.00;67.30;;;;;;5128700;27;20364;-67
2022/05/07 02:10:09;;;;;;;14.05;9.52;;;16.00;67.40;;;;;;5115590;28;20087;-67
2022/05/07 02:12:34;;;;;;;14.63;9.77;;;16.00;67.50;;;;;;5127325;28;20035;-67
2022/05/07 02:15:01;;;;;;;11.90;9.68;;;16.00;67.60;;;;;;5134218;28;20064;-67
2022/05/07 02:17:28;;;;;;;14.00;9.30;;;15.90;67.60;;;;;;5116096;28;20035;-67
2022/05/07 02:19:53;;;;;;;12.68;9.93;;;15.90;67.60;;;;;;5123860;27;20023;-67
2022/05/07 02:22:19;;;;;;;14.52;10.30;;;15.90;67.70;;;;;;5102272;28;20011;-67
2022/05/07 02:24:46;;;;;;;12.27;9.65;;;15.90;67.80;;;;;;5125292;28;20038;-67
2022/05/07 02:27:20;;;;;;;12.52;9.60;;;15.90;67.90;;;;;;5126610;28;20030;-66
2022/05/07 02:29:46;;;;;;;13.93;9.80;;;15.90;67.90;;;;;;5125578;28;20024;-66
2022/05/07 02:32:13;;;;;;;14.07;10.38;;;15.90;68.00;;;;;;5118865;28;20043;-67
2022/05/07 02:34:42;;;;;;;11.93;9.23;;;15.80;68.00;;;;;;5117372;28;20114;-67
2022/05/07 02:37:15;;;;;;;14.70;10.27;;;15.80;68.00;;;;;;5126970;28;20037;-67
2022/05/07 02:39:42;;;;;;;13.32;10.40;;;15.80;68.10;;;;;;5128942;27;20015;-66
2022/05/07 02:44:52;;;;;;;14.10;9.38;;;15.80;68.20;;;;;;5119473;28;20035;-67
2022/05/07 02:47:17;;;;;;;12.63;10.55;;;15.80;68.20;;;;;;5127238;28;20040;-67
2022/05/07 02:49:43;;;;;;;14.52;10.65;;;15.80;68.30;;;;;;5125003;28;20032;-67
2022/05/07 02:52:12;;;;;;;13.82;10.82;;;15.80;68.40;;;;;;5118951;28;20035;-67
2022/05/07 02:54:37;;;;;;;14.45;10.55;;;15.80;68.40;;;;;;5130647;27;20357;-67
2022/05/07 02:57:03;;;;;;;12.05;10.00;;;15.80;68.40;;;;;;5100469;27;20114;-67
2022/05/07 02:59:29;;;;;;;14.95;10.80;;;15.80;68.40;;;;;;5125862;27;20027;-67
2022/05/07 03:01:56;;;;;;;13.48;10.13;;;15.80;68.50;;;;;;5133868;27;20336;-67
2022/05/07 03:04:23;;;;;;;12.65;10.00;;;15.80;68.50;;;;;;5132108;27;20026;-67
2022/05/07 03:06:49;;;;;;;13.60;10.45;;;15.80;68.70;;;;;;5136185;27;20019;-67
2022/05/07 03:09:15;;;;;;;14.65;10.48;;;15.80;68.70;;;;;;5101082;27;20023;-67
2022/05/07 03:11:42;;;;;;;14.02;10.30;;;15.70;68.60;;;;;;5137068;27;20023;-67
2022/05/07 03:14:15;;;;;;;13.07;10.52;;;15.70;68.70;;;;;;5110818;27;20040;-67
2022/05/07 03:16:40;;;;;;;14.10;9.57;;;15.70;68.70;;;;;;5099719;28;20454;-67
2022/05/07 03:19:07;;;;;;;12.63;10.35;;;15.70;68.80;;;;;;5131652;27;20035;-67
2022/05/07 03:21:34;;;;;;;12.65;10.68;;;15.70;68.90;;;;;;5117020;27;20028;-67
2022/05/07 03:24:00;;;;;;;13.15;10.57;;;15.70;68.90;;;;;;5128974;27;20026;-67
2022/05/07 03:26:26;;;;;;;13.20;10.40;;;15.70;69.00;;;;;;5119989;27;20503;-67
2022/05/07 03:28:52;;;;;;;13.57;10.40;;;15.70;69.00;;;;;;5131942;27;20030;-66
2022/05/07 03:31:19;;;;;;;14.23;10.27;;;15.70;69.10;;;;;;5128419;27;20027;-66
2022/05/07 03:33:48;;;;;;;13.95;10.68;;;15.70;69.20;;;;;;5123165;27;20080;-67
2022/05/07 03:36:19;;;;;;;14.10;9.88;;;15.60;69.20;;;;;;5117471;27;20051;-67
2022/05/07 03:38:48;;;;;;;14.00;10.75;;;15.60;69.20;;;;;;5125944;27;20455;-67
2022/05/07 03:41:19;;;;;;;15.30;10.48;;;15.60;69.20;;;;;;5136975;27;20088;-67
2022/05/07 03:43:45;;;;;;;14.30;10.82;;;15.60;69.40;;;;;;5128788;27;20062;-67
2022/05/07 03:46:11;;;;;;;15.25;11.25;;;15.60;69.40;;;;;;5135220;27;20059;-68
2022/05/07 03:48:44;;;;;;;16.38;12.68;;;15.60;69.40;;;;;;5122496;27;20470;-67
2022/05/07 03:51:10;;;;;;;15.88;12.07;;;15.60;69.50;;;;;;5115835;28;20031;-67
2022/05/07 03:53:36;;;;;;;16.73;13.10;;;15.60;69.50;;;;;;5122800;27;20027;-66
2022/05/07 03:56:13;;;;;;;15.48;11.93;;;15.60;69.60;;;;;;5112428;27;20027;-67
2022/05/07 03:58:39;;;;;;;17.30;13.27;;;15.60;69.60;;;;;;5126495;27;20068;-66
2022/05/07 04:01:05;;;;;;;15.52;12.80;;;15.60;69.70;;;;;;5121785;27;20023;-66
2022/05/07 04:03:31;;;;;;;15.75;13.05;;;15.50;69.70;;;;;;5123744;27;20375;-67
2022/05/07 04:05:59;;;;;;;16.52;13.65;;;15.50;69.80;;;;;;5135682;27;20072;-67
2022/05/07 04:08:26;;;;;;;21.50;14.43;;;15.60;69.80;;;;;;5127430;27;20061;-67
2022/05/07 04:10:53;;;;;;;16.25;13.73;;;15.50;69.90;;;;;;5130502;27;20019;-67
2022/05/07 04:13:22;;;;;;;18.38;14.65;;;15.50;69.90;;;;;;5118598;27;20097;-67
2022/05/07 04:15:53;;;;;;;18.23;14.73;;;15.60;70.70;;;;;;5115542;28;20059;-66
2022/05/07 04:18:21;;;;;;;19.48;15.55;;;15.50;70.00;;;;;;5105987;27;20055;-66
2022/05/07 04:20:51;;;;;;;20.30;16.48;;;15.60;70.10;;;;;;5131426;27;20020;-66
2022/05/07 04:23:17;;;;;;;19.05;15.77;;;15.50;70.10;;;;;;5123775;27;20019;-67
2022/05/07 04:25:46;;;;;;;21.30;16.73;;;15.50;70.10;;;;;;5121542;27;20039;-66
2022/05/07 04:28:14;;;;;;;20.73;16.40;;;15.60;70.20;;;;;;5111492;27;20027;-67
2022/05/07 04:30:44;;;;;;;20.35;16.90;;;15.60;70.20;;;;;;5131533;27;20122;-67
2022/05/07 04:33:10;;;;;;;18.40;15.90;;;15.60;70.30;;;;;;5105521;27;20043;-67
2022/05/07 04:35:36;;;;;;;19.98;16.83;;;15.60;70.30;;;;;;5131206;27;20523;-67
2022/05/07 04:38:04;;;;;;;18.60;14.77;;;15.60;70.30;;;;;;5115063;27;20035;-67
2022/05/07 04:40:32;;;;;;;20.85;16.30;;;15.60;70.40;;;;;;5121403;27;20026;-67
2022/05/07 04:42:58;;;;;;;19.48;15.60;;;15.60;70.40;;;;;;5134684;27;20356;-67
2022/05/07 04:45:25;;;;;;;18.90;15.98;;;15.70;70.50;;;;;;5128630;27;20023;-67
2022/05/07 04:47:59;;;;;;;17.00;14.40;;;15.60;70.50;;;;;;5134145;27;20030;-67
2022/05/07 04:50:29;;;;;;;17.90;14.73;;;15.70;70.50;;;;;;5115848;27;20448;-67
2022/05/07 04:53:08;;;;;;;20.08;15.52;;;15.70;70.50;;;;;;5123767;27;20023;-67
2022/05/07 04:55:33;;;;;;;18.77;15.40;;;15.70;70.50;;;;;;5113423;27;20448;-68
2022/05/07 04:57:59;;;;;;;18.17;15.73;;;15.80;70.70;;;;;;5120879;27;20424;-68
2022/05/07 05:00:29;;;;;;;18.17;15.57;;;15.80;70.60;;;;;;5119421;27;20147;-68
2022/05/07 05:03:07;;;;;;;19.13;16.10;;;15.80;70.70;;;;;;5123502;27;20031;-68
2022/05/07 05:05:36;;;;;;;20.30;16.48;;;15.80;70.70;;;;;;5114761;27;20088;-66
2022/05/07 05:08:08;;;;;;;20.65;16.92;;;15.90;70.80;;;;;;5118955;27;20402;-65
2022/05/07 05:10:33;;;;;;;21.05;16.77;;;15.90;70.80;;;;;;5126024;27;20080;-66
2022/05/07 05:12:59;;;;;;;20.42;17.88;;;15.90;70.80;;;;;;5119383;27;20034;-66
2022/05/07 05:15:25;;;;;;;25.73;18.58;;;16.00;70.90;;;;;;5114195;27;20029;-66
2022/05/07 05:18:14;;;;;;;19.70;17.55;;;16.00;70.90;;;;;;5115413;28;20046;-66
2022/05/07 05:20:40;;;;;;;20.88;18.52;;;16.10;70.90;;;;;;5114782;28;20020;-66
2022/05/07 05:23:15;;;;;;;21.42;18.38;;;16.10;70.90;;;;;;5116321;27;20172;-66
2022/05/07 05:25:45;;;;;;;21.33;18.98;;;16.10;71.10;;;;;;5114789;28;20024;-66
2022/05/07 05:28:18;;;;;;;21.75;18.80;;;16.20;71.30;;;;;;5114331;27;20023;-66
2022/05/07 05:30:51;;;;;;;23.30;20.60;;;16.20;71.30;;;;;;5114609;28;20117;-66
2022/05/07 05:33:21;;;;;;;25.90;22.10;;;16.20;71.40;;;;;;5120411;27;20057;-66
2022/05/07 05:35:58;;;;;;;;;;;16.30;71.50;;;;;;5135550;27;20031;-66
2022/05/07 05:38:27;;;;;;;24.15;19.48;;;16.30;71.30;;;;;;5112829;28;19927;-66
2022/05/07 05:40:53;;;;;;;25.08;20.40;;;16.30;71.40;;;;;;5119088;27;20210;-66
2022/05/07 05:43:18;;;;;;;25.08;21.38;;;16.30;71.60;;;;;;5118954;27;20137;-66
2022/05/07 05:45:46;;;;;;;27.38;22.65;;;16.40;71.90;;;;;;5134824;27;20023;-66
2022/05/07 05:48:12;;;;;;;25.23;22.23;;;16.40;72.00;;;;;;5126380;27;20321;-66
2022/05/07 05:50:41;;;;;;;27.30;22.88;;;16.40;72.00;;;;;;5114306;28;20031;-66
2022/05/07 05:53:07;;;;;;;27.02;23.83;;;16.50;72.10;;;;;;5119853;27;20026;-66
2022/05/07 05:55:33;;;;;;;26.75;23.75;;;16.50;72.00;;;;;;5128480;27;20038;-66
2022/05/07 05:57:59;;;;;;;30.98;24.55;;;16.50;71.90;;;;;;5113387;27;20129;-66
2022/05/07 06:00:25;;;;;;;30.27;23.92;;;16.60;71.80;;;;;;5115650;28;20083;-67
2022/05/07 06:02:51;;;;;;;29.88;23.45;;;16.60;71.60;;;;;;5113297;28;20368;-67
2022/05/07 06:05:22;;;;;;;28.40;24.50;;;16.70;71.50;;;;;;5113989;28;20059;-68
2022/05/07 06:07:51;;;;;;;29.15;25.38;;;16.70;72.10;;;;;;5114861;28;20027;-67
2022/05/07 06:10:17;;;;;;;27.17;23.13;;;16.70;71.30;;;;;;5114664;28;20030;-67
2022/05/07 06:12:43;;;;;;;28.13;23.60;;;16.80;71.30;;;;;;5121125;28;20020;-66
2022/05/07 06:15:10;;;;;;;27.63;23.95;;;16.80;71.20;;;;;;5117087;28;20028;-66
2022/05/07 06:17:36;;;;;;;25.27;22.55;;;16.90;71.30;;;;;;5113288;28;20452;-67
2022/05/07 06:20:03;;;;;;;28.70;22.83;;;16.90;71.10;;;;;;5112969;28;20030;-67
2022/05/07 06:22:32;;;;;;;26.85;21.27;;;17.00;70.90;;;;;;5113686;28;20024;-68
2022/05/07 06:27:56;;;;;;;28.48;19.92;;;17.10;70.30;;;;;;5133990;27;20325;-68
2022/05/07 06:30:29;;;;;;;25.70;20.55;;;17.20;69.80;;;;;;5136898;27;20367;-67
2022/05/07 06:32:58;;;;;;;23.13;19.85;;;17.30;69.50;;;;;;5115277;27;20047;-68
2022/05/07 06:35:30;;;;;;;27.75;19.77;;;17.40;69.10;;;;;;5105810;27;20118;-68
2022/05/07 06:38:09;;;;;;;24.25;19.65;;;17.60;68.80;;;;;;5126465;27;20054;-68
2022/05/07 06:40:38;;;;;;;22.05;17.67;;;17.70;68.40;;;;;;5114915;27;20456;-68
2022/05/07 06:43:05;;;;;;;24.10;18.73;;;17.80;67.90;;;;;;5138804;27;20019;-67
2022/05/07 06:45:44;;;;;;;21.73;16.77;;;17.90;67.60;;;;;;5111947;27;20035;-67
2022/05/07 06:48:11;;;;;;;22.38;17.30;;;18.00;67.20;;;;;;5141428;27;20041;-67
2022/05/07 06:50:39;;;;;;;20.15;15.00;;;18.10;66.70;;;;;;5127200;27;20023;-65
2022/05/07 06:53:04;;;;;;;20.77;15.82;;;18.20;66.20;;;;;;5107860;27;20042;-65
2022/05/07 06:55:32;;;;;;;19.63;15.73;;;18.30;65.80;;;;;;5127412;27;20440;-65
2022/05/07 06:57:58;;;;;;;19.50;14.80;;;18.40;65.40;;;;;;5126092;27;20040;-65
2022/05/07 07:00:25;;;;;;;17.38;13.50;;;18.50;64.90;;;;;;5152421;27;20019;-64
2022/05/07 07:02:50;;;;;;;18.30;13.90;;;18.50;64.50;;;;;;5155386;27;20027;-66
2022/05/07 07:05:16;;;;;;;18.73;13.18;;;18.60;64.00;;;;;;5134118;27;20099;-65
2022/05/07 07:07:42;;;;;;;18.75;13.63;;;18.70;63.60;;;;;;5101187;27;20028;-67
2022/05/07 07:10:08;;;;;;;16.92;13.18;;;18.70;63.40;;;;;;5135046;27;20063;-69
2022/05/07 07:12:39;;;;;;;19.02;13.05;;;18.80;63.10;;;;;;5122482;27;20102;-67
2022/05/07 07:15:06;;;;;;;19.33;13.30;;;19.00;62.50;;;;;;5134011;27;20020;-66
2022/05/07 07:17:32;;;;;;;18.23;13.07;;;19.30;62.00;;;;;;5135504;27;20080;-65
2022/05/07 07:19:58;;;;;;;21.85;13.07;;;19.40;61.50;;;;;;5132984;27;20051;-66
2022/05/07 07:22:23;;;;;;;16.33;12.82;;;19.70;61.10;;;;;;5120872;27;20047;-66
2022/05/07 07:24:49;;;;;;;21.20;13.77;;;19.80;60.50;;;;;;5127236;27;20024;-65
2022/05/07 07:27:14;;;;;;;19.92;13.60;;;19.90;60.10;;;;;;5118761;27;20403;-66
2022/05/07 07:29:44;;;;;;;18.52;12.43;;;20.00;59.80;;;;;;5120291;27;21162;-66
2022/05/07 07:32:09;;;;;;;19.48;12.57;;;20.10;59.50;;;;;;5111459;27;20403;-66
2022/05/07 07:34:35;;;;;;;21.00;12.07;;;20.30;59.10;;;;;;5128525;27;20046;-67
2022/05/07 07:37:00;;;;;;;18.95;11.98;;;20.50;58.80;;;;;;5117693;27;20111;-66
2022/05/07 07:39:26;;;;;;;17.17;12.80;;;20.80;58.30;;;;;;5082399;28;20673;-67
2022/05/07 07:41:52;;;;;;;16.45;11.30;;;20.90;57.70;;;;;;5118777;27;20023;-66
2022/05/07 07:44:18;;;;;;;18.98;11.95;;;21.00;57.50;;;;;;5109747;27;20132;-66
2022/05/07 07:49:27;;;;;;;14.88;10.55;;;21.00;57.50;;;;;;5122693;27;20099;-68
2022/05/07 07:51:53;;;;;;;16.67;11.43;;;20.90;57.70;;;;;;5120897;27;20023;-67
2022/05/07 07:54:19;;;;;;;18.50;12.20;;;20.90;57.60;;;;;;5117827;27;20035;-67
2022/05/07 07:56:44;;;;;;;18.70;12.25;;;20.90;57.70;;;;;;5120032;27;20027;-66
2022/05/07 07:59:10;;;;;;;19.38;12.00;;;20.90;57.60;;;;;;5098673;28;20043;-67
2022/05/07 08:01:36;;;;;;;17.15;12.02;;;20.90;57.40;;;;;;5116468;27;20488;-66
2022/05/07 08:04:02;;;;;;;15.20;10.98;;;20.90;57.30;;;;;;5117467;28;20180;-68
2022/05/07 08:06:30;;;;;;;15.32;10.50;;;21.00;57.00;;;;;;5116006;27;20042;-68
2022/05/07 08:11:41;;;;;;;15.68;10.15;;;21.00;56.20;;;;;;5116366;28;20042;-68
2022/05/07 08:14:13;;;;;;;18.10;10.18;;;21.10;56.10;;;;;;5125126;27;20027;-69
2022/05/07 08:16:40;;;;;;;19.45;11.02;;;21.40;55.40;;;;;;5120403;27;20115;-69
2022/05/07 08:19:06;;;;;;;15.38;10.15;;;21.70;55.00;;;;;;5118952;27;20467;-69
2022/05/07 08:21:32;;;;;;;16.55;10.30;;;22.00;54.50;;;;;;5116422;27;20032;-68
2022/05/07 08:23:59;;;;;;;16.73;10.68;;;22.10;54.10;;;;;;5123499;27;20106;-69
2022/05/07 08:26:24;;;;;;;14.63;9.93;;;22.20;54.00;;;;;;5132915;27;20146;-69
2022/05/07 08:28:53;;;;;;;15.15;10.02;;;22.40;53.70;;;;;;5126582;27;20130;-68
2022/05/07 08:31:23;;;;;;;15.40;9.40;;;22.60;53.00;;;;;;5119043;27;20107;-68
2022/05/07 08:33:49;;;;;;;15.15;9.10;;;22.70;52.50;;;;;;5118850;27;20231;-68
2022/05/07 08:36:15;;;;;;;12.43;8.73;;;22.80;52.80;;;;;;5136023;27;20023;-68
2022/05/07 08:38:42;;;;;;;15.02;8.43;;;23.00;51.70;;;;;;5130823;27;20466;-68
2022/05/07 08:41:08;;;;;;;15.43;8.38;;;23.10;51.30;;;;;;5115438;28;20028;-68
2022/05/07 08:43:37;;;;;;;15.30;8.10;;;23.20;50.90;;;;;;5115331;28;20038;-68
2022/05/07 08:46:08;;;;;;;12.30;8.15;;;23.30;50.50;;;;;;5116118;28;20024;-68
2022/05/07 08:48:33;;;;;;;12.35;6.93;;;23.30;50.00;;;;;;5131541;27;20031;-68
2022/05/07 08:50:59;;;;;;;13.45;7.70;;;23.50;50.00;;;;;;5114808;28;20125;-68
2022/05/07 08:53:25;;;;;;;12.68;7.35;;;23.70;49.60;;;;;;5097970;28;20088;-68
2022/05/07 08:55:54;;;;;;;13.02;7.30;;;23.80;49.30;;;;;;5115846;28;20036;-68
2022/05/07 08:58:20;;;;;;;12.65;7.07;;;24.00;48.90;;;;;;5116067;28;20019;-68
2022/05/07 09:00:46;;;;;;;11.90;7.25;;;24.20;48.60;;;;;;5115231;28;20031;-68
2022/05/07 09:03:15;;;;;;;12.32;7.32;;;24.20;48.30;;;;;;5114839;28;20035;-68
2022/05/07 09:05:41;;;;;;;13.93;7.68;;;24.30;48.20;;;;;;5132771;27;20038;-68
2022/05/07 09:08:08;;;;;;;14.93;7.88;;;24.40;48.20;;;;;;5118314;27;20039;-68
2022/05/07 09:10:35;;;;;;;14.38;7.63;;;24.40;48.10;;;;;;5135566;27;20042;-68
2022/05/07 09:13:10;;;;;;;15.77;7.45;;;24.40;47.90;;;;;;5121466;27;20063;-68
2022/05/07 09:15:36;;;;;;;13.70;7.60;;;24.50;47.80;;;;;;5114753;27;20065;-68
2022/05/07 09:18:12;;;;;;;13.00;7.00;;;24.60;47.80;;;;;;5114231;27;20371;-68
2022/05/07 09:20:38;;;;;;;11.90;7.07;;;24.70;47.60;;;;;;5131404;27;20046;-68
2022/05/07 09:23:04;;;;;;;11.98;6.70;;;24.80;47.50;;;;;;5128620;27;20027;-68
2022/05/07 09:25:30;;;;;;;11.60;6.40;;;24.80;47.40;;;;;;5118925;27;20408;-67
2022/05/07 09:27:59;;;;;;;12.32;6.82;;;24.90;47.20;;;;;;5118232;27;20057;-68
2022/05/07 09:30:28;;;;;;;11.48;6.22;;;25.00;47.10;;;;;;5116202;27;20031;-67
2022/05/07 09:32:55;;;;;;;10.82;6.05;;;25.10;47.00;;;;;;5115871;27;20054;-67
2022/05/07 09:38:10;;;;;;;12.98;5.93;;;25.40;46.70;;;;;;5119669;27;20088;-70
2022/05/07 09:40:41;;;;;;;11.15;5.90;;;25.50;46.60;;;;;;5101306;28;20023;-68
2022/05/07 09:43:09;;;;;;;11.75;7.05;;;25.60;47.10;;;;;;5116195;27;20028;-68
2022/05/07 09:45:37;;;;;;;12.88;7.65;;;25.60;46.30;;;;;;5114919;28;20015;-68
2022/05/07 09:48:04;;;;;;;12.73;6.70;;;25.60;46.70;;;;;;5132463;27;20031;-68
2022/05/07 09:58:37;;;;;;;8.98;5.05;;;25.90;45.30;;;;;;5115293;28;20456;-67
2022/05/07 10:01:25;;;;;;;14.55;6.22;;;25.90;45.10;;;;;;5133378;27;20084;-69
2022/05/07 10:04:08;;;;;;;12.50;6.15;;;25.90;44.70;;;;;;5121248;27;20028;-69
2022/05/07 10:07:03;;;;;;;9.95;5.53;;;25.70;45.20;;;;;;5113771;28;20073;-69
2022/05/07 10:09:37;;;;;;;11.38;5.45;;;25.90;44.70;;;;;;5130246;28;20071;-68
2022/05/07 10:12:03;;;;;;;10.02;6.43;;;26.10;44.60;;;;;;5116436;28;20146;-69
2022/05/07 10:14:31;;;;;;;12.10;6.13;;;26.20;44.30;;;;;;5114894;28;20614;-70
2022/05/07 10:16:58;;;;;;;10.30;5.63;;;25.90;44.20;;;;;;5115199;28;20057;-69
2022/05/07 10:19:41;;;;;;;11.57;6.15;;;25.60;44.70;;;;;;5118410;28;20023;-68
2022/05/07 10:22:24;;;;;;;11.93;6.53;;;25.30;45.20;;;;;;5116863;28;20024;-68
2022/05/07 10:25:14;;;;;;;11.23;6.13;;;25.20;45.40;;;;;;5110972;28;20055;-67
2022/05/07 10:27:44;;;;;;;13.93;6.90;;;25.20;45.30;;;;;;5114484;27;20026;-69
2022/05/07 10:30:14;;;;;;;13.00;7.05;;;25.30;45.00;;;;;;5096884;28;20118;-68
2022/05/07 10:33:05;;;;;;;11.32;6.45;;;25.50;44.70;;;;;;5114070;28;20071;-68
2022/05/07 10:35:52;;;;;;;10.85;6.47;;;25.60;44.50;;;;;;5110608;28;20088;-68
2022/05/07 10:38:24;;;;;;;11.68;6.93;;;25.30;44.80;;;;;;5115249;27;20104;-68
2022/05/07 10:41:06;;;;;;;12.88;7.30;;;25.10;44.80;;;;;;5116468;28;20505;-69
2022/05/07 10:43:41;;;;;;;12.05;6.82;;;25.10;44.90;;;;;;5113667;28;20030;-68
2022/05/07 10:46:16;;;;;;;15.13;6.72;;;25.30;44.70;;;;;;5132577;28;20032;-68
2022/05/07 10:48:45;;;;;;;10.50;6.82;;;25.60;44.40;;;;;;5115620;27;20348;-67
2022/05/07 10:51:28;;;;;;;11.85;6.75;;;25.80;44.20;;;;;;5128674;28;20355;-67
2022/05/07 10:54:00;;;;;;;11.85;6.20;;;25.80;44.00;;;;;;5111902;28;20035;-66
2022/05/07 10:56:30;;;;;;;12.38;6.97;;;25.60;44.30;;;;;;5115595;28;20039;-66
2022/05/07 10:58:59;;;;;;;12.25;7.32;;;25.30;44.60;;;;;;5134094;27;20096;-67
2022/05/07 11:01:27;;;;;;;14.07;7.05;;;25.10;44.90;;;;;;5118736;27;20043;-67
2022/05/07 11:04:04;;;;;;;11.52;6.72;;;25.00;45.10;;;;;;5119524;28;20111;-68
2022/05/07 11:06:31;;;;;;;10.02;5.80;;;24.90;45.10;;;;;;5113391;28;20115;-68
2022/05/07 11:08:57;;;;;;;10.80;6.18;;;25.10;44.70;;;;;;5115757;28;20024;-68
2022/05/07 11:11:24;;;;;;;10.45;5.22;;;25.40;44.20;;;;;;5113543;28;20030;-67
2022/05/07 11:13:55;;;;;;;12.52;6.40;;;25.60;43.90;;;;;;5116221;27;20065;-68
2022/05/07 11:16:21;;;;;;;8.95;5.03;;;25.60;43.80;;;;;;5119673;27;20032;-68
2022/05/07 11:18:52;;;;;;;9.98;5.43;;;25.50;44.20;;;;;;5128443;27;20035;-68
2022/05/07 11:21:22;;;;;;;10.07;5.65;;;25.50;44.40;;;;;;5138648;27;20051;-68
2022/05/07 11:24:00;;;;;;;10.82;5.80;;;25.60;44.50;;;;;;5125889;27;20020;-68
2022/05/07 11:26:26;;;;;;;12.25;6.57;;;25.40;44.60;;;;;;5126129;27;20494;-68
2022/05/07 11:28:52;;;;;;;11.27;6.32;;;25.20;44.80;;;;;;5134030;27;20352;-67
2022/05/07 11:31:52;;;;;;;11.55;6.03;;;24.90;45.30;;;;;;5126680;27;20042;-68
2022/05/07 11:34:31;;;;;;;9.50;5.88;;;24.70;45.70;;;;;;5117069;27;20043;-68
2022/05/07 11:37:14;;;;;;;15.00;6.40;;;24.50;46.10;;;;;;5117588;27;20028;-68
2022/05/07 11:39:53;;;;;;;8.93;5.53;;;24.40;47.00;;;;;;5117849;27;20036;-68
2022/05/07 11:42:33;;;;;;;12.18;6.47;;;24.30;46.70;;;;;;5116457;27;20115;-68
2022/05/07 11:48:00;;;;;;;10.70;6.78;;;24.00;47.30;;;;;;5130995;27;20539;-68
2022/05/07 11:50:32;;;;;;;12.07;6.57;;;23.80;47.60;;;;;;5120529;27;20032;-68
2022/05/07 11:53:15;;;;;;;14.45;6.25;;;23.70;47.80;;;;;;5125491;27;20503;-68
2022/05/07 11:55:43;;;;;;;11.85;5.85;;;23.60;47.90;;;;;;5117151;28;20034;-68
2022/05/07 11:58:23;;;;;;;11.30;6.25;;;23.50;48.20;;;;;;5116926;27;20039;-69
2022/05/07 12:00:55;;;;;;;8.38;5.30;;;23.30;48.30;;;;;;5136853;27;20019;-68
2022/05/07 12:03:27;;;;;;;12.90;5.47;;;23.20;48.70;;;;;;5121959;27;21227;-68
2022/05/07 12:05:55;;;;;;;11.73;6.05;;;23.00;49.20;;;;;;5117484;27;20023;-70
2022/05/07 12:08:31;;;;;;;11.75;5.63;;;22.80;50.30;;;;;;5109134;27;20372;-68
2022/05/07 12:10:58;;;;;;;18.58;7.40;;;22.60;52.50;;;;;;5124898;27;20059;-69
2022/05/07 12:13:24;;;;;;;15.10;7.20;;;22.30;54.90;;;;;;5116038;27;20028;-69
2022/05/07 12:18:37;;;;;;;15.55;7.05;;;21.60;58.50;;;;;;5119931;27;20174;-69
2022/05/07 12:21:05;;;;;;;13.55;5.93;;;21.40;59.80;;;;;;5127862;27;20016;-70
2022/05/07 12:31:44;;;;;;;12.23;5.85;;;21.10;62.60;;;;;;5125579;27;20035;-71
2022/05/07 12:34:10;;;;;;;10.85;5.57;;;21.10;63.50;;;;;;5132030;27;20038;-70
2022/05/07 12:36:36;;;;;;;10.38;5.70;;;21.10;63.80;;;;;;5130359;27;20391;-70
2022/05/07 12:39:02;;;;;;;8.80;5.53;;;21.10;64.20;;;;;;5131205;27;20426;-70
2022/05/07 12:41:28;;;;;;;10.15;5.78;;;21.10;64.60;;;;;;5127754;27;20020;-69
2022/05/07 12:43:58;;;;;;;10.80;6.50;;;21.10;64.90;;;;;;5113880;27;20067;-70
2022/05/07 12:46:24;;;;;;;11.10;6.13;;;21.10;65.90;;;;;;5125908;27;20028;-68
2022/05/07 12:48:50;;;;;;;10.32;6.00;;;21.00;65.30;;;;;;5125379;27;20019;-68
2022/05/07 12:51:17;;;;;;;12.70;6.82;;;21.10;65.90;;;;;;5121078;27;20039;-69
2022/05/07 12:53:43;;;;;;;12.52;6.97;;;21.10;66.30;;;;;;5124463;27;20058;-69
2022/05/07 12:56:08;;;;;;;10.85;6.68;;;21.10;66.50;;;;;;5126562;27;20034;-69
2022/05/07 12:58:35;;;;;;;12.10;7.18;;;21.20;66.60;;;;;;5123947;27;20027;-69
2022/05/07 13:01:03;;;;;;;12.75;7.43;;;21.30;66.30;;;;;;5123535;27;20463;-69
2022/05/07 13:03:29;;;;;;;11.32;7.28;;;21.60;66.30;;;;;;5123891;27;20127;-69
2022/05/07 13:05:55;;;;;;;12.65;7.88;;;21.80;67.00;;;;;;5122202;27;20102;-69
2022/05/07 13:08:20;;;;;;;12.38;6.65;;;21.80;66.20;;;;;;5122550;27;20074;-69
2022/05/07 13:10:46;;;;;;;11.52;6.57;;;21.90;66.10;;;;;;5125580;27;20042;-69
2022/05/07 13:13:12;;;;;;;10.32;6.68;;;21.90;65.70;;;;;;5118277;27;20031;-69
2022/05/07 13:15:39;;;;;;;13.10;7.88;;;21.90;65.60;;;;;;5123970;27;20489;-69
2022/05/07 13:18:04;;;;;;;13.85;8.52;;;21.80;65.30;;;;;;5122318;27;20023;-69
2022/05/07 13:20:31;;;;;;;16.67;9.10;;;21.80;64.90;;;;;;5125595;27;20023;-69
2022/05/07 13:22:57;;;;;;;14.35;8.38;;;21.80;64.30;;;;;;5121410;27;20030;-69
2022/05/07 13:25:23;;;;;;;14.23;8.25;;;21.80;63.90;;;;;;5122282;27;20059;-68